Terminal Aerodrome Forecast
Issued by NWS Twin Cities, MN

Home | Current Version | Previous Version | Graphics & Text | Print | Product List | Glossary On
Versions: 1 2 3 4 5 6 7 8 9 10 11 12 13 14 15 16 17 18
463
FTUS43 KMPX 222338
TAFSTC
TAF
KSTC 222338Z 2300/2324 15011KT P6SM OVC090
     FM230300 15010KT P6SM OVC070
     FM231800 15010G19KT P6SM OVC025
     FM232100 14009KT 4SM -DZ BR OVC007=

USA.gov is the U.S. government's official web portal to all federal, state and local government web resources and services.